createdAt,value
2023-03-20T00:02:19.097Z,0.68
2023-03-20T00:04:46.053Z,0.85
2023-03-20T00:07:12.912Z,0.75
2023-03-20T00:09:39.781Z,0.70
2023-03-20T00:12:06.514Z,0.55
2023-03-20T00:14:33.847Z,0.68
2023-03-20T00:17:00.624Z,0.77
2023-03-20T00:19:31.393Z,0.75
2023-03-20T00:21:58.444Z,0.70
2023-03-20T00:24:25.460Z,1.05
2023-03-20T00:26:52.567Z,0.80
2023-03-20T00:29:22.616Z,0.60
2023-03-20T00:31:49.496Z,0.77
2023-03-20T00:34:17.872Z,0.57
2023-03-20T00:36:44.592Z,0.70
2023-03-20T00:39:11.287Z,0.80
2023-03-20T00:41:50.500Z,0.98
2023-03-20T00:44:38.462Z,0.68
2023-03-20T00:47:12.893Z,0.80
2023-03-20T00:49:40.267Z,0.70
2023-03-20T00:52:07.043Z,0.57
2023-03-20T00:54:33.697Z,0.70
2023-03-20T00:57:03.353Z,0.73
2023-03-20T00:59:35.916Z,0.60
2023-03-20T01:02:02.809Z,0.60
2023-03-20T01:04:36.905Z,0.80
2023-03-20T01:07:04.191Z,0.60
2023-03-20T01:09:30.982Z,0.73
2023-03-20T01:11:59.690Z,0.65
2023-03-20T01:14:26.560Z,0.88
2023-03-20T01:16:53.371Z,0.75
2023-03-20T01:19:20.237Z,0.80
2023-03-20T01:21:46.998Z,0.55
2023-03-20T01:24:13.845Z,0.60
2023-03-20T01:26:42.316Z,0.65
2023-03-20T01:29:22.105Z,0.57
2023-03-20T01:31:49.335Z,1.00
2023-03-20T01:34:18.733Z,0.70
2023-03-20T01:36:55.731Z,0.52
2023-03-20T01:39:24.429Z,0.88
2023-03-20T01:41:52.030Z,0.80
2023-03-20T01:44:22.240Z,0.60
2023-03-20T01:46:50.712Z,0.50
2023-03-20T01:49:20.661Z,0.70
2023-03-20T01:51:48.085Z,0.43
2023-03-20T01:54:35.228Z,1.10
2023-03-20T01:57:17.166Z,0.73
2023-03-20T01:59:51.314Z,0.75
2023-03-20T02:02:21.618Z,0.52
2023-03-20T02:04:50.273Z,0.70
2023-03-20T02:07:17.746Z,0.70
2023-03-20T02:09:44.422Z,0.45
2023-03-20T02:12:11.347Z,0.63
2023-03-20T02:14:38.068Z,0.60
2023-03-20T02:17:05.914Z,0.50
2023-03-20T02:19:44.484Z,0.80
2023-03-20T02:22:13.964Z,0.60
2023-03-20T02:25:38.469Z,0.40
2023-03-20T02:28:26.593Z,0.73
2023-03-20T02:31:23.942Z,0.70
2023-03-20T02:34:02.814Z,0.63
2023-03-20T02:36:36.968Z,0.90
2023-03-20T02:39:40.899Z,0.95
2023-03-20T02:42:09.240Z,0.90
2023-03-20T02:44:41.064Z,0.90
2023-03-20T02:47:14.766Z,0.52
2023-03-20T02:50:17.268Z,1.15
2023-03-20T02:52:58.354Z,0.68
2023-03-20T02:55:37.757Z,0.90
2023-03-20T02:58:24.291Z,0.60
2023-03-20T03:00:59.536Z,1.05
2023-03-20T03:03:34.341Z,0.55
2023-03-20T03:06:34.792Z,1.00
2023-03-20T03:09:29.648Z,0.65
2023-03-20T03:12:04.997Z,0.82
2023-03-20T03:14:51.621Z,0.80
2023-03-20T03:17:19.071Z,0.60
2023-03-20T03:19:52.458Z,1.25
2023-03-20T03:22:19.707Z,0.80
2023-03-20T03:24:48.078Z,1.05
2023-03-20T03:27:40.445Z,1.13
2023-03-20T03:30:15.390Z,0.90
2023-03-20T03:32:46.915Z,1.00
2023-03-20T03:35:18.641Z,1.00
2023-03-20T03:38:00.886Z,1.15
2023-03-20T03:40:30.377Z,0.90
2023-03-20T03:43:03.317Z,1.13
2023-03-20T03:45:38.497Z,1.20
2023-03-20T03:48:15.467Z,1.30
2023-03-20T03:50:48.861Z,1.00
2023-03-20T03:53:22.391Z,1.30
2023-03-20T03:55:51.982Z,1.83
2023-03-20T03:58:26.696Z,1.20
2023-03-20T04:00:53.737Z,1.27
2023-03-20T04:03:23.858Z,0.90
2023-03-20T04:05:50.606Z,0.90
2023-03-20T04:08:17.366Z,1.20
2023-03-20T04:10:44.003Z,1.42
2023-03-20T04:13:11.808Z,0.73
2023-03-20T04:15:38.485Z,1.20
2023-03-20T04:18:05.578Z,1.05
2023-03-20T04:20:32.638Z,1.10
2023-03-20T04:22:59.433Z,1.23
2023-03-20T04:25:26.781Z,1.05
2023-03-20T04:27:53.952Z,0.80
2023-03-20T04:30:20.715Z,1.00
2023-03-20T04:32:47.481Z,1.30
2023-03-20T04:35:14.224Z,0.85
2023-03-20T04:37:41.040Z,1.20
2023-03-20T04:40:08.272Z,1.15
2023-03-20T04:42:35.055Z,0.98
2023-03-20T04:45:01.752Z,1.27
2023-03-20T04:47:28.420Z,1.55
2023-03-20T04:49:55.220Z,0.75
2023-03-20T04:52:21.903Z,1.00
2023-03-20T04:54:48.608Z,0.85
2023-03-20T04:57:16.768Z,0.90
2023-03-20T04:59:43.453Z,0.80
2023-03-20T05:02:14.947Z,0.77
2023-03-20T05:04:42.680Z,0.80
2023-03-20T05:07:09.569Z,1.20
2023-03-20T05:09:36.406Z,1.25
2023-03-20T05:12:03.463Z,1.00
2023-03-20T05:14:30.236Z,0.77
2023-03-20T05:16:57.084Z,1.00
2023-03-20T05:19:23.881Z,1.00
2023-03-20T05:21:50.907Z,0.88
2023-03-20T05:24:17.558Z,1.38
2023-03-20T05:26:44.249Z,1.08
2023-03-20T05:29:11.053Z,1.00
2023-03-20T05:31:38.293Z,1.08
2023-03-20T05:34:05.529Z,1.15
2023-03-20T05:36:32.326Z,0.70
2023-03-20T05:38:59.132Z,0.98
2023-03-20T05:41:25.902Z,0.65
2023-03-20T05:43:52.627Z,0.95
2023-03-20T05:46:19.344Z,0.80
2023-03-20T05:48:46.018Z,1.33
2023-03-20T05:51:12.857Z,1.15
2023-03-20T05:53:39.522Z,1.60
2023-03-20T05:56:06.702Z,1.30
2023-03-20T05:58:33.569Z,1.00
2023-03-20T06:01:00.453Z,1.60
2023-03-20T06:03:27.184Z,1.00
2023-03-20T06:05:53.873Z,1.15
2023-03-20T06:08:20.822Z,1.05
2023-03-20T06:10:49.908Z,1.05
2023-03-20T06:13:16.722Z,1.30
2023-03-20T06:15:43.472Z,1.00
2023-03-20T06:18:10.329Z,1.13
2023-03-20T06:20:37.072Z,1.00
2023-03-20T06:23:03.946Z,1.10
2023-03-20T06:25:30.796Z,1.50
2023-03-20T06:27:57.886Z,0.95
2023-03-20T06:30:24.568Z,1.30
2023-03-20T06:32:51.359Z,1.10
2023-03-20T06:35:18.612Z,1.42
2023-03-20T06:37:45.361Z,1.50
2023-03-20T06:40:12.174Z,1.52
2023-03-20T06:42:38.910Z,1.52
2023-03-20T06:45:06.709Z,1.00
2023-03-20T06:47:33.482Z,1.15
2023-03-20T06:50:00.191Z,0.82
2023-03-20T06:52:26.920Z,1.42
2023-03-20T06:54:53.637Z,1.10
2023-03-20T06:57:20.889Z,1.15
2023-03-20T06:59:47.777Z,1.08
2023-03-20T07:02:14.469Z,1.05
2023-03-20T07:04:41.427Z,1.13
2023-03-20T07:07:10.060Z,1.33
2023-03-20T07:09:37.060Z,1.25
2023-03-20T07:12:04.749Z,1.38
2023-03-20T07:14:31.597Z,1.35
2023-03-20T07:16:58.512Z,1.73
2023-03-20T07:19:25.524Z,1.10
2023-03-20T07:21:55.509Z,1.45
2023-03-20T07:24:22.238Z,1.27
2023-03-20T07:26:48.970Z,1.48
2023-03-20T07:29:16.567Z,1.38
2023-03-20T07:31:43.318Z,1.23
2023-03-20T07:34:10.958Z,1.35
2023-03-20T07:36:38.072Z,1.13
2023-03-20T07:39:04.956Z,1.33
2023-03-20T07:41:31.642Z,1.45
2023-03-20T07:43:58.443Z,1.50
2023-03-20T07:46:26.353Z,1.02
2023-03-20T07:48:53.206Z,1.10
2023-03-20T07:51:19.910Z,1.00
2023-03-20T07:53:46.720Z,0.90
2023-03-20T07:56:13.374Z,1.10
2023-03-20T07:58:40.331Z,1.23
2023-03-20T08:01:07.100Z,1.00
2023-03-20T08:03:34.114Z,1.02
2023-03-20T08:06:01.791Z,0.95
2023-03-20T08:08:28.651Z,1.05
2023-03-20T08:10:55.574Z,1.10
2023-03-20T08:13:25.392Z,1.00
2023-03-20T08:15:55.300Z,1.10
2023-03-20T08:18:27.687Z,0.73
2023-03-20T08:20:54.611Z,1.60
2023-03-20T08:23:21.596Z,0.88
2023-03-20T08:25:52.174Z,1.23
2023-03-20T08:28:18.885Z,1.17
2023-03-20T08:30:45.686Z,1.02
2023-03-20T08:33:12.471Z,1.30
2023-03-20T08:35:39.395Z,1.30
2023-03-20T08:38:06.500Z,1.20
2023-03-20T08:40:33.231Z,1.40
2023-03-20T08:43:00.060Z,1.05
2023-03-20T08:45:26.936Z,1.08
2023-03-20T08:47:53.622Z,1.40
2023-03-20T08:50:20.842Z,1.15
2023-03-20T08:52:47.585Z,1.50
2023-03-20T08:55:14.819Z,1.60
2023-03-20T08:57:41.916Z,1.17
2023-03-20T09:00:09.777Z,1.08
2023-03-20T09:02:36.519Z,1.25
2023-03-20T09:05:03.438Z,1.33
2023-03-20T09:07:30.171Z,0.93
2023-03-20T09:09:56.860Z,1.00
2023-03-20T09:12:23.810Z,1.08
2023-03-20T09:14:50.600Z,1.13
2023-03-20T09:17:17.340Z,1.00
2023-03-20T09:19:44.832Z,0.75
2023-03-20T09:22:14.862Z,0.80
2023-03-20T09:24:41.852Z,0.85
2023-03-20T09:27:08.517Z,0.90
2023-03-20T09:29:35.790Z,0.77
2023-03-20T09:32:02.556Z,0.52
2023-03-20T09:34:29.621Z,0.50
2023-03-20T09:36:56.426Z,0.50
2023-03-20T09:39:23.352Z,0.75
2023-03-20T09:41:57.005Z,0.60
2023-03-20T09:44:37.843Z,0.70
2023-03-20T09:47:19.833Z,0.80
2023-03-20T09:50:05.958Z,0.70
2023-03-20T09:52:55.403Z,0.60
2023-03-20T09:55:23.812Z,0.50
2023-03-20T09:57:52.737Z,0.68
2023-03-20T10:00:20.387Z,0.60
2023-03-20T10:03:00.170Z,0.47
2023-03-20T10:06:00.189Z,0.80
2023-03-20T10:08:29.650Z,0.45
2023-03-20T10:11:07.412Z,0.50
2023-03-20T10:13:53.825Z,0.50
2023-03-20T10:16:42.053Z,0.70
2023-03-20T10:19:38.534Z,0.77
2023-03-20T10:22:26.802Z,0.50
2023-03-20T10:25:11.233Z,0.60
2023-03-20T10:27:44.039Z,0.80
2023-03-20T10:30:31.984Z,0.57
2023-03-20T10:33:26.959Z,0.65
2023-03-20T10:36:00.337Z,0.50
2023-03-20T10:38:29.854Z,0.63
2023-03-20T10:40:58.138Z,0.70
2023-03-20T10:43:33.631Z,0.63
2023-03-20T10:46:18.899Z,0.70
2023-03-20T10:48:52.677Z,0.63
2023-03-20T10:51:21.878Z,0.75
2023-03-20T10:53:53.094Z,0.50
2023-03-20T10:56:30.772Z,0.45
2023-03-20T10:59:22.910Z,0.65
2023-03-20T11:01:49.693Z,0.60
2023-03-20T11:04:16.473Z,0.70
2023-03-20T11:07:06.269Z,0.47
2023-03-20T11:09:33.193Z,0.47
2023-03-20T11:12:01.626Z,0.57
2023-03-20T11:14:33.946Z,0.70
2023-03-20T11:17:02.064Z,0.50
2023-03-20T11:19:28.819Z,0.60
2023-03-20T11:21:58.560Z,0.40
2023-03-20T11:24:46.000Z,0.35
2023-03-20T11:27:18.086Z,0.32
2023-03-20T11:29:47.103Z,0.50
2023-03-20T11:32:16.683Z,0.25
2023-03-20T11:34:43.569Z,0.50
2023-03-20T11:37:29.056Z,0.60
2023-03-20T11:40:17.611Z,0.55
2023-03-20T11:43:23.364Z,0.45
2023-03-20T11:46:00.778Z,0.65
2023-03-20T11:48:41.271Z,0.50
2023-03-20T11:51:16.842Z,0.40
2023-03-20T11:53:49.506Z,0.60
2023-03-20T11:56:24.469Z,0.57
2023-03-20T11:59:13.570Z,0.52
2023-03-20T12:01:49.820Z,0.60
2023-03-20T12:04:18.220Z,0.60
2023-03-20T12:06:44.945Z,0.60
2023-03-20T12:09:23.484Z,0.52
2023-03-20T12:12:17.562Z,0.47
2023-03-20T12:14:53.373Z,0.80
2023-03-20T12:17:46.641Z,0.85
2023-03-20T12:20:38.480Z,0.70
2023-03-20T12:23:12.640Z,0.73
2023-03-20T12:26:07.314Z,0.55
2023-03-20T12:28:45.061Z,0.50
2023-03-20T12:31:22.117Z,0.90
2023-03-20T12:34:11.657Z,1.00
2023-03-20T12:36:41.834Z,0.85
2023-03-20T12:39:14.207Z,1.05
2023-03-20T12:42:12.036Z,1.17
2023-03-20T12:44:39.768Z,0.95
2023-03-20T12:47:09.407Z,1.45
2023-03-20T12:49:44.483Z,1.00
2023-03-20T12:52:22.717Z,1.08
2023-03-20T12:55:17.152Z,0.90
2023-03-20T12:58:05.130Z,1.02
2023-03-20T13:00:40.397Z,0.70
2023-03-20T13:03:45.759Z,1.20
2023-03-20T13:06:33.193Z,1.42
2023-03-20T13:09:18.509Z,1.33
2023-03-20T13:12:37.291Z,0.90
2023-03-20T13:15:22.881Z,1.20
2023-03-20T13:17:55.672Z,1.00
2023-03-20T13:20:51.040Z,0.77
2023-03-20T13:23:27.486Z,0.90
2023-03-20T13:25:57.340Z,0.77
2023-03-20T13:28:30.996Z,0.80
2023-03-20T13:31:10.652Z,0.90
2023-03-20T13:33:46.452Z,0.90
2023-03-20T13:36:18.956Z,1.10
2023-03-20T13:38:50.269Z,1.48
2023-03-20T13:41:17.037Z,1.20
2023-03-20T13:43:49.869Z,1.13
2023-03-20T13:46:49.842Z,0.82
2023-03-20T13:49:26.061Z,0.90
2023-03-20T13:52:17.031Z,0.88
2023-03-20T13:55:17.785Z,0.85
2023-03-20T13:58:23.694Z,0.70
2023-03-20T14:01:01.800Z,0.73
2023-03-20T14:03:33.285Z,0.70
2023-03-20T14:06:00.117Z,0.65
2023-03-20T14:08:32.631Z,0.70
2023-03-20T14:11:07.807Z,0.60
2023-03-20T14:13:34.601Z,0.60
2023-03-20T14:16:03.364Z,0.40
2023-03-20T14:18:30.481Z,0.73
2023-03-20T14:20:59.153Z,0.63
2023-03-20T14:24:00.445Z,0.50
2023-03-20T14:26:28.857Z,0.50
2023-03-20T14:28:59.975Z,0.40
2023-03-20T14:31:32.351Z,0.52
2023-03-20T14:34:00.594Z,0.47
2023-03-20T14:36:42.158Z,0.40
2023-03-20T14:39:14.704Z,0.30
2023-03-20T14:42:01.540Z,0.40
2023-03-20T14:44:38.888Z,0.30
2023-03-20T14:47:34.692Z,0.40
2023-03-20T14:50:19.867Z,0.28
2023-03-20T14:53:08.667Z,0.40
2023-03-20T14:55:57.707Z,0.38
2023-03-20T14:58:46.835Z,0.43
2023-03-20T15:01:19.489Z,0.30
2023-03-20T15:03:50.724Z,0.30
2023-03-20T15:06:19.043Z,0.30
2023-03-20T15:09:20.040Z,0.40
2023-03-20T15:11:46.802Z,0.47
2023-03-20T15:14:21.316Z,0.28
2023-03-20T15:16:48.520Z,0.47
2023-03-20T15:19:18.964Z,0.30
2023-03-20T15:21:46.356Z,0.38
2023-03-20T15:24:27.167Z,0.30
2023-03-20T15:27:01.039Z,0.50
2023-03-20T15:29:27.889Z,0.28
2023-03-20T15:32:12.420Z,0.43
2023-03-20T15:34:40.501Z,0.40
2023-03-20T15:37:07.277Z,0.38
2023-03-20T15:39:42.970Z,0.40
2023-03-20T15:42:13.148Z,0.60
2023-03-20T15:44:41.057Z,0.30
2023-03-20T15:47:16.918Z,0.38
2023-03-20T15:49:43.815Z,0.30
2023-03-20T15:52:25.624Z,0.32
2023-03-20T15:54:52.321Z,0.40
2023-03-20T15:57:40.142Z,0.30
2023-03-20T16:00:10.200Z,0.55
2023-03-20T16:02:37.023Z,0.20
2023-03-20T16:05:04.367Z,0.40
2023-03-20T16:07:32.249Z,0.40
2023-03-20T16:09:59.519Z,0.20
2023-03-20T16:12:27.212Z,0.40
2023-03-20T16:14:54.088Z,0.30
2023-03-20T16:17:22.130Z,0.40
2023-03-20T16:19:49.093Z,0.50
2023-03-20T16:22:29.874Z,0.40
2023-03-20T16:24:58.296Z,0.57
2023-03-20T16:27:29.911Z,0.45
2023-03-20T16:29:57.159Z,0.40
2023-03-20T16:33:00.528Z,0.50
2023-03-20T16:35:49.365Z,0.40
2023-03-20T16:38:22.370Z,0.40
2023-03-20T16:40:54.078Z,0.70
2023-03-20T16:43:24.502Z,0.35
2023-03-20T16:45:53.472Z,0.40
2023-03-20T16:48:39.295Z,0.50
2023-03-20T16:51:18.198Z,0.50
2023-03-20T16:53:49.267Z,0.30
2023-03-20T16:56:42.724Z,0.30
2023-03-20T16:59:17.733Z,0.35
2023-03-20T17:01:45.080Z,0.50
2023-03-20T17:04:44.742Z,0.50
2023-03-20T17:07:17.931Z,0.30
2023-03-20T17:09:59.439Z,0.52
2023-03-20T17:12:27.507Z,0.60
2023-03-20T17:14:54.754Z,0.40
2023-03-20T17:17:22.392Z,0.30
2023-03-20T17:19:50.172Z,0.63
2023-03-20T17:22:22.132Z,0.45
2023-03-20T17:24:49.265Z,0.40
2023-03-20T17:27:16.961Z,0.40
2023-03-20T17:29:52.415Z,0.25
2023-03-20T17:32:20.637Z,0.50
2023-03-20T17:34:47.732Z,0.47
2023-03-20T17:37:35.145Z,0.30
2023-03-20T17:40:02.068Z,0.40
2023-03-20T17:42:31.780Z,0.50
2023-03-20T17:44:59.265Z,0.30
2023-03-20T17:47:27.006Z,0.30
2023-03-20T17:49:54.657Z,0.30
2023-03-20T17:52:25.105Z,0.40
2023-03-20T17:54:52.453Z,0.30
2023-03-20T17:57:24.437Z,0.40
2023-03-20T17:59:54.317Z,0.22
2023-03-20T18:02:21.781Z,0.47
2023-03-20T18:04:49.283Z,0.30
2023-03-20T18:07:18.646Z,0.30
2023-03-20T18:09:45.687Z,0.30
2023-03-20T18:12:15.645Z,0.20
2023-03-20T18:14:42.897Z,0.40
2023-03-20T18:17:12.054Z,0.30
2023-03-20T18:19:39.033Z,0.40
2023-03-20T18:22:05.846Z,0.40
2023-03-20T18:24:32.755Z,0.40
2023-03-20T18:27:00.350Z,0.30
2023-03-20T18:29:27.301Z,0.28
2023-03-20T18:31:54.173Z,0.30
2023-03-20T18:34:21.238Z,0.55
2023-03-20T18:36:47.950Z,0.30
2023-03-20T18:39:22.471Z,0.30
2023-03-20T18:41:49.227Z,0.32
2023-03-20T18:44:16.027Z,0.40
2023-03-20T18:46:42.975Z,0.50
2023-03-20T18:49:17.002Z,0.50
2023-03-20T18:51:44.428Z,0.80
2023-03-20T18:54:11.911Z,0.70
2023-03-20T18:56:38.731Z,0.63
2023-03-20T18:59:07.803Z,1.15
2023-03-20T19:01:35.330Z,1.00
2023-03-20T19:04:02.281Z,1.35
2023-03-20T19:06:32.433Z,1.67
2023-03-20T19:09:05.214Z,1.13
2023-03-20T19:11:35.067Z,1.85
2023-03-20T19:14:02.241Z,1.63
2023-03-20T19:16:31.845Z,1.20
2023-03-20T19:19:01.799Z,1.20
2023-03-20T19:21:29.585Z,1.38
2023-03-20T19:24:03.964Z,1.50
2023-03-20T19:26:31.897Z,2.05
2023-03-20T19:29:01.015Z,1.48
2023-03-20T19:31:28.609Z,1.00
2023-03-20T19:33:56.929Z,1.30
2023-03-20T19:36:35.057Z,1.17
2023-03-20T19:39:02.875Z,1.40
2023-03-20T19:41:32.323Z,1.25
2023-03-20T19:43:59.600Z,1.67
2023-03-20T19:46:43.014Z,1.33
2023-03-20T19:51:46.724Z,1.38
2023-03-20T19:54:13.880Z,1.30
2023-03-20T19:56:41.211Z,1.33
2023-03-20T19:59:08.429Z,1.52
2023-03-20T20:01:36.293Z,1.90
2023-03-20T20:04:04.695Z,1.27
2023-03-20T20:06:32.976Z,1.50
2023-03-20T20:09:01.418Z,1.27
2023-03-20T20:11:28.364Z,1.20
2023-03-20T20:14:06.754Z,1.25
2023-03-20T20:16:36.097Z,1.65
2023-03-20T20:19:02.936Z,1.45
2023-03-20T20:24:20.961Z,1.23
2023-03-20T20:27:11.639Z,1.10
2023-03-20T20:29:39.559Z,1.38
2023-03-20T20:32:06.364Z,1.13
2023-03-20T20:35:30.823Z,1.20
2023-03-20T20:40:12.379Z,1.02
2023-03-20T20:42:39.306Z,1.10
2023-03-20T20:45:07.541Z,1.33
2023-03-20T20:47:34.248Z,1.42
2023-03-20T20:50:04.229Z,0.90
2023-03-20T20:52:31.521Z,1.15
2023-03-20T20:55:04.849Z,1.20
2023-03-20T20:57:37.820Z,1.15
2023-03-20T21:00:05.674Z,1.40
2023-03-20T21:02:32.808Z,1.50
2023-03-20T21:04:59.904Z,1.02
2023-03-20T21:07:26.734Z,1.00
2023-03-20T21:09:53.468Z,1.35
2023-03-20T21:12:34.735Z,1.20
2023-03-20T21:15:03.650Z,0.93
2023-03-20T21:17:30.807Z,1.02
2023-03-20T21:19:58.221Z,1.05
2023-03-20T21:22:25.031Z,0.88
2023-03-20T21:24:53.843Z,1.05
2023-03-20T21:27:27.616Z,1.00
2023-03-20T21:29:54.396Z,0.90
2023-03-20T21:32:21.998Z,0.73
2023-03-20T21:34:49.214Z,1.48
2023-03-20T21:38:22.893Z,0.95
2023-03-20T21:40:06.717Z,1.08
2023-03-20T21:42:35.168Z,0.73
2023-03-20T21:48:38.386Z,0.77
2023-03-20T21:50:59.217Z,0.80
2023-03-20T21:56:50.365Z,0.95
2023-03-20T21:59:48.545Z,0.82
2023-03-20T22:02:10.418Z,1.85
2023-03-20T22:05:18.817Z,1.10
2023-03-20T22:13:43.376Z,1.05
2023-03-20T22:24:54.989Z,1.23
2023-03-20T22:32:53.369Z,1.20
2023-03-20T22:38:34.917Z,0.95
2023-03-20T22:41:37.956Z,0.77
2023-03-20T22:44:24.747Z,0.90
2023-03-20T22:46:43.716Z,1.00
2023-03-20T22:49:00.818Z,0.73
2023-03-20T22:51:34.117Z,0.82
2023-03-20T22:54:02.390Z,0.82
2023-03-20T22:56:29.130Z,1.00
2023-03-20T22:58:55.825Z,0.90
2023-03-20T23:01:22.582Z,1.05
2023-03-20T23:03:49.314Z,1.08
2023-03-20T23:06:23.668Z,1.10
2023-03-20T23:08:55.497Z,1.10
2023-03-20T23:11:24.570Z,1.23
2023-03-20T23:13:53.482Z,1.60
2023-03-20T23:16:20.422Z,1.20
2023-03-20T23:18:47.401Z,1.00
2023-03-20T23:21:14.636Z,1.13
2023-03-20T23:23:41.402Z,0.85
2023-03-20T23:26:12.675Z,1.10
2023-03-20T23:28:40.126Z,0.80
2023-03-20T23:31:12.171Z,0.80
2023-03-20T23:33:39.409Z,0.70
2023-03-20T23:36:18.588Z,0.68
2023-03-20T23:38:48.780Z,0.70
2023-03-20T23:41:16.145Z,0.50
2023-03-20T23:43:42.910Z,0.75
2023-03-20T23:46:10.345Z,0.80
2023-03-20T23:48:37.289Z,0.90
2023-03-20T23:51:04.400Z,0.63
2023-03-20T23:53:31.281Z,0.50
2023-03-20T23:55:57.965Z,1.00
2023-03-20T23:58:25.593Z,0.88
